Time;durP1;ratioP1;P1;durP2;ratioP2;P2;SDS_P1;SDS_P2;PMS_P1;PMS_P2;Temp;Humidity;BMP_temperature;BMP_pressure;BME280_temperature;BME280_humidity;BME280_pressure;Samples;Min_cycle;Max_cycle;Signal;HPM_P1;HPM_P2
2022/04/28 00:00:25;;;;;;;6.20;1.85;;;16.10;55.00;;;;;;4919539;29;20043;-78
2022/04/28 00:03:01;;;;;;;7.68;1.77;;;15.90;55.40;;;;;;4917729;29;20035;-77
2022/04/28 00:05:33;;;;;;;5.70;1.60;;;15.80;55.90;;;;;;4937445;29;20077;-77
2022/04/28 00:08:02;;;;;;;9.43;2.33;;;15.90;57.80;;;;;;4921171;29;20176;-78
2022/04/28 00:21:29;;;;;;;6.53;2.00;;;16.20;57.80;;;;;;4873979;29;20465;-77
2022/04/28 00:24:13;;;;;;;;;;;;;;;;;;;;;
2022/04/28 00:27:18;;;;;;;;;;;;;;;;;;;;;
2022/04/28 00:30:24;;;;;;;6.22;2.17;;;16.20;56.80;;;;;;4898327;29;20045;-77
2022/04/28 00:33:33;;;;;;;5.15;1.70;;;16.30;56.40;;;;;;4895660;29;20096;-77
2022/04/28 00:36:02;;;;;;;7.30;2.00;;;16.30;56.10;;;;;;4891210;29;20041;-77
2022/04/28 00:38:43;;;;;;;6.97;1.80;;;16.30;55.90;;;;;;4884032;29;20132;-77
2022/04/28 00:41:14;;;;;;;4.20;1.60;;;16.40;55.70;;;;;;4884011;29;20033;-76
2022/04/28 00:43:51;;;;;;;6.97;1.88;;;16.30;55.40;;;;;;4899299;29;20048;-77
2022/04/28 00:46:17;;;;;;;7.40;1.77;;;16.20;55.20;;;;;;4899249;29;20040;-77
2022/04/28 00:51:40;;;;;;;7.57;1.70;;;16.30;55.00;;;;;;4899979;29;20052;-77
2022/04/28 00:54:11;;;;;;;5.82;1.85;;;16.30;54.90;;;;;;4898762;29;20044;-76
2022/04/28 00:56:46;;;;;;;6.95;1.60;;;16.20;54.80;;;;;;4882862;29;20115;-77
2022/04/28 00:59:15;;;;;;;7.28;1.90;;;16.20;54.80;;;;;;4883997;29;20130;-77
2022/04/28 01:01:43;;;;;;;5.82;1.40;;;16.20;54.70;;;;;;4883103;29;20100;-77
2022/04/28 01:04:09;;;;;;;6.65;2.30;;;16.20;54.60;;;;;;4898660;29;20120;-76
2022/04/28 01:06:35;;;;;;;4.18;1.75;;;16.20;54.60;;;;;;4899356;29;20565;-77
2022/04/28 01:09:01;;;;;;;5.18;1.83;;;16.20;54.50;;;;;;4882870;29;20088;-77
2022/04/28 01:11:33;;;;;;;4.55;1.67;;;16.20;54.40;;;;;;4883025;29;20059;-77
2022/04/28 01:14:04;;;;;;;5.47;1.90;;;16.20;54.40;;;;;;4882781;29;20075;-77
2022/04/28 01:16:30;;;;;;;4.57;1.75;;;16.10;54.30;;;;;;4883254;29;20049;-77
2022/04/28 01:19:00;;;;;;;6.53;2.17;;;16.10;54.80;;;;;;4904300;29;20055;-77
2022/04/28 01:21:34;;;;;;;4.57;1.85;;;16.10;54.10;;;;;;4936586;29;20035;-77
2022/04/28 01:24:01;;;;;;;5.90;1.52;;;16.10;54.10;;;;;;4920926;29;20043;-78
2022/04/28 01:26:30;;;;;;;4.75;1.45;;;16.00;54.10;;;;;;4920733;29;20039;-76
2022/04/28 01:28:56;;;;;;;5.40;1.48;;;16.10;54.10;;;;;;4939718;29;20155;-77
2022/04/28 01:31:22;;;;;;;4.35;1.80;;;16.00;54.00;;;;;;4924636;29;20473;-75
2022/04/28 01:33:47;;;;;;;7.45;1.92;;;16.00;53.90;;;;;;4924263;29;20076;-77
2022/04/28 01:36:13;;;;;;;4.38;1.73;;;16.00;53.90;;;;;;4940244;29;20054;-77
2022/04/28 01:38:39;;;;;;;6.07;1.50;;;16.00;53.80;;;;;;4934213;29;20102;-77
2022/04/28 01:41:33;;;;;;;4.00;1.50;;;16.00;53.80;;;;;;4924614;29;20114;-77
2022/04/28 01:44:13;;;;;;;4.53;1.50;;;16.00;53.80;;;;;;4925080;29;20138;-77
2022/04/28 01:46:47;;;;;;;7.45;2.17;;;16.00;53.90;;;;;;4923902;29;20365;-77
2022/04/28 01:49:19;;;;;;;6.93;2.00;;;16.00;53.90;;;;;;4940210;29;20382;-77
2022/04/28 01:57:13;;;;;;;5.22;2.17;;;16.00;54.10;;;;;;4940279;29;19988;-77
2022/04/28 01:59:38;;;;;;;5.55;1.70;;;15.90;53.90;;;;;;4923645;29;20508;-78
2022/04/28 02:02:04;;;;;;;6.00;1.42;;;15.90;53.70;;;;;;4931946;29;20118;-77
2022/04/28 02:04:30;;;;;;;6.13;1.55;;;15.90;53.60;;;;;;4905163;29;20078;-77
2022/04/28 02:07:01;;;;;;;3.00;1.45;;;15.90;53.60;;;;;;4924335;29;20047;-77
2022/04/28 02:09:30;;;;;;;4.20;1.10;;;15.90;53.50;;;;;;4904842;29;20448;-77
2022/04/28 02:12:01;;;;;;;6.88;1.83;;;15.90;53.50;;;;;;4924316;29;20385;-77
2022/04/28 02:14:30;;;;;;;4.05;1.20;;;15.90;53.50;;;;;;4938052;29;20043;-77
2022/04/28 02:16:55;;;;;;;4.70;1.98;;;15.90;53.40;;;;;;4923417;29;20044;-77
2022/04/28 02:19:22;;;;;;;4.43;1.70;;;15.90;53.40;;;;;;4923127;29;20060;-78
2022/04/28 02:21:50;;;;;;;5.50;1.60;;;15.80;53.30;;;;;;4923481;29;20083;-78
2022/04/28 02:24:24;;;;;;;5.60;1.70;;;15.80;53.30;;;;;;4908678;29;20047;-76
2022/04/28 02:27:02;;;;;;;5.60;1.33;;;15.80;53.20;;;;;;4923241;29;20032;-77
2022/04/28 02:29:30;;;;;;;8.13;2.28;;;15.80;53.90;;;;;;4907224;29;20476;-77
2022/04/28 02:32:01;;;;;;;10.30;2.05;;;15.80;53.30;;;;;;4923277;29;20154;-77
2022/04/28 02:34:35;;;;;;;10.27;2.47;;;15.80;53.20;;;;;;4922921;29;20114;-77
2022/04/28 02:37:01;;;;;;;;;;;15.80;53.10;;;;;;4923857;29;20039;-77
2022/04/28 02:42:59;;;;;;;;;;;;;;;;;;;;;
2022/04/28 02:45:44;;;;;;;9.43;2.25;;;15.80;53.30;;;;;;4934704;29;20559;-77
2022/04/28 02:48:18;;;;;;;4.03;1.95;;;15.70;53.30;;;;;;4923288;29;20059;-77
2022/04/28 02:50:46;;;;;;;;;;;15.80;54.00;;;;;;4908642;29;20043;-76
2022/04/28 02:53:38;;;;;;;5.43;1.50;;;15.80;53.50;;;;;;4922683;29;19918;-77
2022/04/28 02:56:33;;;;;;;12.13;2.47;;;15.80;53.50;;;;;;4928020;29;20408;-77
2022/04/28 02:59:07;;;;;;;;;;;15.70;53.40;;;;;;4939631;29;20428;-76
2022/04/28 03:01:43;;;;;;;7.65;1.75;;;15.80;53.60;;;;;;4915360;29;19993;-77
2022/04/28 03:04:15;;;;;;;3.33;1.30;;;15.70;53.50;;;;;;4938225;29;20365;-77
2022/04/28 03:12:20;;;;;;;4.55;1.50;;;15.70;53.30;;;;;;4938264;29;20047;-77
2022/04/28 03:14:48;;;;;;;5.35;1.58;;;15.70;54.00;;;;;;4938908;29;20349;-76
2022/04/28 03:17:19;;;;;;;5.93;1.52;;;15.70;53.30;;;;;;4938538;29;20361;-76
2022/04/28 03:19:53;;;;;;;6.88;2.08;;;15.70;53.30;;;;;;4922735;29;20396;-76
2022/04/28 03:22:18;;;;;;;3.85;1.38;;;15.70;53.30;;;;;;4937999;29;20449;-77
2022/04/28 03:24:44;;;;;;;5.93;1.38;;;15.70;53.30;;;;;;4939383;29;20046;-77
2022/04/28 03:27:10;;;;;;;4.68;1.42;;;15.70;53.30;;;;;;4938088;29;20357;-77
2022/04/28 03:29:38;;;;;;;5.00;1.55;;;15.70;53.30;;;;;;4938038;29;20141;-76
2022/04/28 03:32:08;;;;;;;3.22;1.20;;;15.70;53.30;;;;;;4938766;29;20058;-77
2022/04/28 03:34:34;;;;;;;6.28;1.75;;;15.70;53.30;;;;;;4921853;29;20099;-77
2022/04/28 03:37:00;;;;;;;4.13;1.65;;;15.70;53.20;;;;;;4939104;29;20130;-77
2022/04/28 03:39:25;;;;;;;3.40;1.70;;;15.70;53.20;;;;;;4906802;29;20465;-77
2022/04/28 03:42:20;;;;;;;4.43;1.52;;;15.70;53.20;;;;;;4919240;29;20360;-77
2022/04/28 03:45:00;;;;;;;4.18;1.48;;;15.60;53.20;;;;;;4921687;29;20501;-77
2022/04/28 03:47:38;;;;;;;3.53;1.40;;;15.70;53.40;;;;;;4938081;29;20051;-78
2022/04/28 03:50:12;;;;;;;5.75;1.77;;;15.70;53.40;;;;;;4937460;29;20348;-77
2022/04/28 03:52:38;;;;;;;5.85;1.83;;;15.70;53.40;;;;;;4922185;29;20326;-77
2022/04/28 03:55:09;;;;;;;4.53;1.50;;;15.70;53.50;;;;;;4938694;29;20078;-77
2022/04/28 03:57:36;;;;;;;4.25;1.08;;;15.70;53.50;;;;;;4921899;29;20337;-77
2022/04/28 04:00:07;;;;;;;7.90;1.50;;;15.60;53.50;;;;;;4937517;29;20036;-77
2022/04/28 04:02:33;;;;;;;6.45;1.77;;;15.70;53.50;;;;;;4915554;29;20372;-76
2022/04/28 04:05:04;;;;;;;4.47;1.58;;;15.60;53.40;;;;;;4937066;29;20059;-77
2022/04/28 04:07:41;;;;;;;4.75;1.38;;;15.60;53.40;;;;;;4921980;29;20075;-77
2022/04/28 04:10:08;;;;;;;4.57;1.45;;;15.60;53.40;;;;;;4921869;29;20052;-77
2022/04/28 04:12:39;;;;;;;5.70;2.08;;;15.60;53.40;;;;;;4936280;29;20051;-77
2022/04/28 04:15:06;;;;;;;4.45;1.60;;;15.60;53.40;;;;;;4921690;29;20051;-77
2022/04/28 04:17:45;;;;;;;4.82;1.67;;;15.60;53.40;;;;;;4921441;29;20036;-77
2022/04/28 04:20:16;;;;;;;6.82;1.65;;;15.60;53.40;;;;;;4920421;29;20493;-77
2022/04/28 04:22:45;;;;;;;3.95;1.60;;;15.60;53.40;;;;;;4921343;29;20079;-77
2022/04/28 04:25:11;;;;;;;4.13;1.40;;;15.60;53.40;;;;;;4937881;29;20086;-77
2022/04/28 04:27:37;;;;;;;5.72;1.40;;;15.60;53.50;;;;;;4921606;29;20364;-78
2022/04/28 04:32:17;;;;;;;6.45;2.45;;;15.60;53.50;;;;;;4920942;29;20449;-77
2022/04/28 04:32:52;;;;;;;3.90;1.55;;;15.60;53.60;;;;;;4908627;29;20051;-77
2022/04/28 04:35:18;;;;;;;7.00;2.25;;;15.60;53.60;;;;;;4905132;29;20050;-77
2022/04/28 04:37:46;;;;;;;5.05;2.05;;;15.60;53.60;;;;;;4920128;29;20047;-77
2022/04/28 04:40:15;;;;;;;4.97;2.25;;;15.60;53.70;;;;;;4906480;29;20032;-77
2022/04/28 04:42:47;;;;;;;5.88;1.73;;;15.50;53.70;;;;;;4937780;29;20031;-77
2022/04/28 04:45:15;;;;;;;6.85;2.00;;;15.50;53.70;;;;;;4921012;29;20058;-77
2022/04/28 04:48:02;;;;;;;;;;;;;;;;;;;;;
2022/04/28 04:50:42;;;;;;;5.88;1.65;;;15.50;53.90;;;;;;4934101;29;20062;-77
2022/04/28 04:53:30;;;;;;;4.05;1.80;;;15.50;54.00;;;;;;4919770;29;20052;-77
2022/04/28 04:55:58;;;;;;;4.22;1.42;;;15.50;54.20;;;;;;4906024;29;20444;-77
2022/04/28 04:58:41;;;;;;;7.10;2.40;;;15.50;54.40;;;;;;4937306;29;20046;-77
2022/04/28 05:01:30;;;;;;;4.50;1.88;;;15.50;54.60;;;;;;4921289;29;20048;-77
2022/04/28 05:04:06;;;;;;;8.07;1.50;;;15.50;54.70;;;;;;4939655;29;20130;-77
2022/04/28 05:06:41;;;;;;;11.15;2.03;;;15.50;55.00;;;;;;4940512;29;20046;-77
2022/04/28 05:09:07;;;;;;;16.63;2.25;;;15.50;55.30;;;;;;4924709;29;20047;-77
2022/04/28 05:11:32;;;;;;;8.43;1.95;;;15.50;55.70;;;;;;4940288;29;20044;-77
2022/04/28 05:13:58;;;;;;;13.45;2.03;;;15.50;56.00;;;;;;4940368;29;20067;-78
2022/04/28 05:16:24;;;;;;;8.50;1.77;;;15.30;56.40;;;;;;4908385;29;20357;-76
2022/04/28 05:18:50;;;;;;;8.60;1.77;;;15.20;57.30;;;;;;4925128;29;20051;-74
2022/04/28 05:21:15;;;;;;;7.85;1.73;;;15.10;57.90;;;;;;4927025;29;20044;-77
2022/04/28 05:23:44;;;;;;;13.75;2.17;;;15.20;57.80;;;;;;4908481;29;20437;-76
2022/04/28 05:26:09;;;;;;;8.77;1.30;;;15.40;57.80;;;;;;4908811;29;20058;-74
2022/04/28 05:28:35;;;;;;;9.63;1.67;;;15.70;57.20;;;;;;4941125;29;20047;-79
2022/04/28 05:31:01;;;;;;;10.02;1.55;;;16.00;56.70;;;;;;4938230;29;20051;-78
2022/04/28 05:33:26;;;;;;;11.60;2.17;;;16.30;56.30;;;;;;4941101;29;20047;-77
2022/04/28 05:35:52;;;;;;;10.45;2.33;;;16.40;54.70;;;;;;4940754;29;20047;-77
2022/04/28 05:38:18;;;;;;;11.65;1.38;;;15.90;56.20;;;;;;4924606;29;20469;-73
2022/04/28 05:40:44;;;;;;;13.07;1.65;;;16.20;56.70;;;;;;4940795;29;20071;-77
2022/04/28 05:46:15;;;;;;;7.35;1.25;;;16.10;56.40;;;;;;4882017;29;20053;-77
2022/04/28 05:48:41;;;;;;;6.70;1.20;;;16.30;56.70;;;;;;4882498;29;20057;-77
2022/04/28 05:51:07;;;;;;;11.20;1.52;;;16.60;56.40;;;;;;4905875;29;20151;-78
2022/04/28 05:53:33;;;;;;;8.15;1.17;;;16.80;56.00;;;;;;4940445;29;20060;-77
2022/04/28 05:55:59;;;;;;;8.43;1.48;;;16.70;55.90;;;;;;4940681;29;20456;-78
2022/04/28 05:58:28;;;;;;;7.25;2.13;;;16.90;55.80;;;;;;4940586;29;20436;-78
2022/04/28 06:01:31;;;;;;;7.82;2.15;;;17.00;55.50;;;;;;4937422;29;20044;-79
2022/04/28 06:03:57;;;;;;;10.20;1.83;;;17.10;55.40;;;;;;4923850;29;20043;-78
2022/04/28 06:06:26;;;;;;;6.35;1.50;;;17.00;55.40;;;;;;4923585;29;20050;-78
2022/04/28 06:08:51;;;;;;;6.05;1.65;;;17.20;55.50;;;;;;4940331;29;20047;-78
2022/04/28 06:11:17;;;;;;;13.00;1.67;;;17.20;55.20;;;;;;4939898;29;20040;-78
2022/04/28 06:13:46;;;;;;;8.73;1.88;;;17.30;55.10;;;;;;4938672;29;20118;-77
2022/04/28 06:16:11;;;;;;;11.68;1.70;;;17.40;55.20;;;;;;4939215;29;20426;-77
2022/04/28 06:18:37;;;;;;;4.70;1.23;;;16.90;55.20;;;;;;4939033;29;20393;-79
2022/04/28 06:21:03;;;;;;;7.03;1.55;;;17.20;56.10;;;;;;4936570;29;20375;-74
2022/04/28 06:23:28;;;;;;;4.65;1.13;;;17.40;56.00;;;;;;4939405;29;20086;-77
2022/04/28 06:25:57;;;;;;;7.45;1.50;;;17.10;54.30;;;;;;4938219;29;20123;-74
2022/04/28 06:28:23;;;;;;;7.25;1.52;;;16.60;55.40;;;;;;4938727;29;20114;-77
2022/04/28 06:30:48;;;;;;;4.03;1.00;;;16.30;55.60;;;;;;4938724;29;20130;-77
2022/04/28 06:33:14;;;;;;;7.13;1.20;;;16.00;56.20;;;;;;4939293;29;20047;-77
2022/04/28 06:35:40;;;;;;;5.25;1.60;;;15.80;56.40;;;;;;4939946;29;20103;-77
2022/04/28 06:38:05;;;;;;;5.35;1.67;;;15.60;57.10;;;;;;4940142;29;20353;-76
2022/04/28 06:40:31;;;;;;;6.70;1.15;;;15.50;57.30;;;;;;4939285;29;20048;-78
2022/04/28 06:42:57;;;;;;;3.70;1.52;;;15.40;57.10;;;;;;4939893;29;20512;-77
2022/04/28 06:45:24;;;;;;;7.13;1.23;;;15.40;56.90;;;;;;4939758;29;20050;-77
2022/04/28 06:47:49;;;;;;;5.45;1.20;;;15.30;57.00;;;;;;4939177;29;20048;-76
2022/04/28 06:50:15;;;;;;;3.42;1.20;;;15.30;57.30;;;;;;4940242;29;20047;-79
2022/04/28 06:52:41;;;;;;;3.63;0.82;;;15.70;59.30;;;;;;4939543;29;20475;-78
2022/04/28 06:55:09;;;;;;;5.90;0.93;;;16.30;58.30;;;;;;4939309;29;20127;-74
2022/04/28 06:57:36;;;;;;;4.10;0.98;;;16.60;57.00;;;;;;4939466;29;20428;-75
2022/04/28 07:00:04;;;;;;;7.60;1.05;;;17.00;56.70;;;;;;4936508;29;20408;-73
2022/04/28 07:02:30;;;;;;;5.45;0.88;;;17.20;56.00;;;;;;4930245;29;20052;-78
2022/04/28 07:04:56;;;;;;;4.07;0.95;;;17.40;55.80;;;;;;4922370;29;20075;-79
2022/04/28 07:07:22;;;;;;;7.68;1.80;;;17.60;56.10;;;;;;4939311;29;20369;-78
2022/04/28 07:09:48;;;;;;;6.03;0.77;;;17.70;55.20;;;;;;4939037;29;20059;-78
2022/04/28 07:12:14;;;;;;;4.50;1.00;;;17.80;55.10;;;;;;4939437;29;20043;-77
2022/04/28 07:14:39;;;;;;;2.97;1.13;;;17.80;54.90;;;;;;4939241;29;20048;-78
2022/04/28 07:17:05;;;;;;;3.30;0.85;;;17.90;54.80;;;;;;4938668;29;20074;-77
2022/04/28 07:19:31;;;;;;;3.97;0.60;;;17.90;54.60;;;;;;4938981;29;20063;-78
2022/04/28 07:22:02;;;;;;;5.30;0.90;;;17.90;54.60;;;;;;4922185;29;20490;-77
2022/04/28 07:24:29;;;;;;;5.45;0.90;;;17.90;54.60;;;;;;4938549;29;20369;-78
2022/04/28 07:26:55;;;;;;;4.03;0.95;;;17.80;54.70;;;;;;4927495;29;20464;-78
2022/04/28 07:29:20;;;;;;;3.40;0.63;;;17.80;54.90;;;;;;4937787;29;20552;-80
2022/04/28 07:31:46;;;;;;;4.72;1.20;;;17.70;54.60;;;;;;4906378;29;20095;-74
2022/04/28 07:34:12;;;;;;;7.40;1.50;;;17.80;56.40;;;;;;4938640;29;20165;-78
2022/04/28 07:36:38;;;;;;;3.72;1.13;;;17.80;57.10;;;;;;4938363;29;20051;-76
2022/04/28 07:39:03;;;;;;;4.40;1.05;;;17.80;57.30;;;;;;4938753;29;20058;-75
2022/04/28 07:41:29;;;;;;;6.03;1.10;;;17.80;56.30;;;;;;4938133;29;20445;-72
2022/04/28 07:43:55;;;;;;;7.10;1.38;;;17.70;56.30;;;;;;4938916;29;20115;-73
2022/04/28 07:46:21;;;;;;;5.40;1.00;;;17.70;53.90;;;;;;4938273;29;20055;-78
2022/04/28 07:48:47;;;;;;;5.45;1.20;;;17.30;57.10;;;;;;4937717;29;20056;-77
2022/04/28 07:51:12;;;;;;;4.68;1.00;;;17.40;56.80;;;;;;4939179;29;20051;-76
2022/04/28 07:53:38;;;;;;;6.18;0.77;;;17.50;57.90;;;;;;4939036;29;20524;-74
2022/04/28 07:56:10;;;;;;;11.65;1.08;;;17.50;57.30;;;;;;4936710;29;20047;-76
2022/04/28 07:58:37;;;;;;;2.60;0.93;;;17.60;59.30;;;;;;4938075;29;20044;-75
2022/04/28 08:01:04;;;;;;;6.20;1.10;;;17.60;57.30;;;;;;4938344;29;20070;-74
2022/04/28 08:03:30;;;;;;;4.05;0.88;;;17.70;56.80;;;;;;4938190;29;20043;-75
2022/04/28 08:05:56;;;;;;;7.32;1.00;;;17.70;56.50;;;;;;4938846;29;20141;-74
2022/04/28 08:08:22;;;;;;;4.50;0.88;;;17.80;56.20;;;;;;4938297;29;20047;-77
2022/04/28 08:10:48;;;;;;;7.38;1.20;;;17.80;56.20;;;;;;4935919;29;20353;-75
2022/04/28 08:13:14;;;;;;;4.97;0.90;;;17.80;56.10;;;;;;4938566;29;20135;-76
2022/04/28 08:15:40;;;;;;;5.10;1.05;;;17.80;56.20;;;;;;4938348;29;20058;-76
2022/04/28 08:18:06;;;;;;;4.35;0.70;;;17.80;55.50;;;;;;4937918;29;20039;-75
2022/04/28 08:20:32;;;;;;;3.88;0.90;;;17.80;55.70;;;;;;4923192;29;20063;-73
2022/04/28 08:22:57;;;;;;;3.67;0.80;;;17.90;55.70;;;;;;4921439;29;20432;-76
2022/04/28 08:25:23;;;;;;;6.00;1.13;;;17.80;55.80;;;;;;4934684;29;20047;-76
2022/04/28 08:27:49;;;;;;;4.40;0.63;;;17.90;56.30;;;;;;4921286;29;20503;-75
2022/04/28 08:30:14;;;;;;;6.00;0.88;;;17.90;56.40;;;;;;4937662;29;20047;-75
2022/04/28 08:32:40;;;;;;;4.97;0.98;;;17.90;56.50;;;;;;4937333;29;20058;-76
2022/04/28 08:35:07;;;;;;;3.78;0.90;;;17.90;56.10;;;;;;4937687;29;20051;-76
2022/04/28 08:37:33;;;;;;;4.00;0.75;;;18.00;56.10;;;;;;4934842;29;20091;-76
2022/04/28 08:39:58;;;;;;;4.68;1.00;;;18.00;56.00;;;;;;4937577;29;20047;-77
2022/04/28 08:42:26;;;;;;;7.20;1.10;;;18.00;56.00;;;;;;4921906;29;20139;-77
2022/04/28 08:44:57;;;;;;;5.63;0.77;;;18.00;56.00;;;;;;4937504;29;20043;-76
2022/04/28 08:47:24;;;;;;;6.18;0.80;;;18.00;56.10;;;;;;4937523;29;20477;-75
2022/04/28 08:49:49;;;;;;;3.72;0.82;;;18.00;56.30;;;;;;4937224;29;20047;-75
2022/04/28 08:52:17;;;;;;;12.43;1.20;;;17.90;56.60;;;;;;4937491;29;20380;-72
2022/04/28 08:54:47;;;;;;;9.25;1.85;;;17.90;55.90;;;;;;4936503;29;20051;-76
2022/04/28 08:57:13;;;;;;;8.77;1.13;;;17.90;56.60;;;;;;4937529;29;20051;-77
2022/04/28 08:59:40;;;;;;;4.95;1.13;;;17.90;56.90;;;;;;4938448;29;20365;-77
2022/04/28 09:02:10;;;;;;;14.80;1.60;;;17.80;57.20;;;;;;4936593;29;20469;-78
2022/04/28 09:04:36;;;;;;;10.50;1.52;;;17.80;57.50;;;;;;4936382;29;20051;-74
2022/04/28 09:07:02;;;;;;;10.95;0.95;;;17.90;57.60;;;;;;4937479;29;20471;-74
2022/04/28 09:09:28;;;;;;;11.38;1.65;;;17.80;57.70;;;;;;4921700;29;20476;-74
2022/04/28 09:11:58;;;;;;;8.02;1.88;;;17.80;57.60;;;;;;4937768;29;20044;-74
2022/04/28 09:14:24;;;;;;;11.25;1.73;;;17.90;57.60;;;;;;4920805;29;20191;-74
2022/04/28 09:16:52;;;;;;;13.27;1.95;;;17.90;57.60;;;;;;4936815;29;20048;-72
2022/04/28 09:19:19;;;;;;;14.27;1.77;;;17.90;57.70;;;;;;4937259;29;20056;-74
2022/04/28 09:21:46;;;;;;;20.98;2.65;;;17.90;57.70;;;;;;4920564;29;20516;-76
2022/04/28 09:24:13;;;;;;;12.35;1.75;;;17.90;57.60;;;;;;4937140;29;20130;-76
2022/04/28 09:26:40;;;;;;;15.80;2.25;;;17.60;56.30;;;;;;4937281;29;20080;-75
2022/04/28 09:29:11;;;;;;;8.80;1.70;;;17.60;57.60;;;;;;4937041;29;20048;-75
2022/04/28 09:31:38;;;;;;;12.30;2.28;;;17.70;57.90;;;;;;4936816;29;20090;-75
2022/04/28 09:34:06;;;;;;;15.43;2.42;;;17.70;58.20;;;;;;4936866;29;20085;-73
2022/04/28 09:36:32;;;;;;;14.43;1.52;;;17.70;58.30;;;;;;4936684;29;20388;-74
2022/04/28 09:38:58;;;;;;;14.82;2.75;;;17.70;58.50;;;;;;4937298;29;20055;-76
2022/04/28 09:44:12;;;;;;;17.23;2.40;;;17.70;59.10;;;;;;4937292;29;20196;-73
2022/04/28 09:46:43;;;;;;;13.43;1.98;;;17.70;59.60;;;;;;4925830;29;20110;-73
2022/04/28 09:49:14;;;;;;;14.18;2.08;;;17.60;59.50;;;;;;4938344;29;20047;-74
2022/04/28 09:51:41;;;;;;;13.55;4.72;;;17.70;59.10;;;;;;4937970;29;20051;-76
2022/04/28 09:54:09;;;;;;;20.55;5.13;;;17.70;60.20;;;;;;4940117;29;20043;-74
2022/04/28 09:56:37;;;;;;;48.65;6.43;;;17.70;63.00;;;;;;4923972;29;20086;-74
2022/04/28 09:59:05;;;;;;;28.02;4.65;;;17.70;63.00;;;;;;4941045;29;20059;-73
2022/04/28 10:01:32;;;;;;;21.42;4.15;;;17.70;63.10;;;;;;4926224;29;20044;-72
2022/04/28 10:03:58;;;;;;;19.92;3.92;;;17.70;63.30;;;;;;4940615;29;20135;-77
2022/04/28 10:06:25;;;;;;;11.80;2.75;;;17.70;63.10;;;;;;4907848;29;20054;-73
2022/04/28 10:08:55;;;;;;;30.90;5.15;;;17.70;59.40;;;;;;4939883;29;20067;-72
2022/04/28 10:11:23;;;;;;;25.90;3.95;;;17.70;61.80;;;;;;4940383;29;20054;-72
2022/04/28 10:13:50;;;;;;;27.08;3.85;;;17.70;62.80;;;;;;4926765;29;20463;-72
2022/04/28 10:16:18;;;;;;;21.38;3.55;;;17.70;61.10;;;;;;4939332;29;20078;-72
2022/04/28 10:19:10;;;;;;;20.50;3.25;;;17.70;61.00;;;;;;4924092;29;20091;-71
2022/04/28 10:22:02;;;;;;;24.65;4.32;;;17.70;61.10;;;;;;4939952;29;20059;-71
2022/04/28 10:33:00;;;;;;;15.43;2.30;;;17.70;63.60;;;;;;4939962;29;20047;-72
2022/04/28 10:35:54;;;;;;;14.40;3.50;;;17.70;63.40;;;;;;4937080;29;20059;-73
2022/04/28 10:38:30;;;;;;;15.23;2.70;;;17.70;64.10;;;;;;4939432;29;20055;-73
2022/04/28 10:41:01;;;;;;;19.58;3.17;;;17.70;64.00;;;;;;4939951;29;20373;-72
2022/04/28 10:43:33;;;;;;;16.45;2.80;;;17.70;64.20;;;;;;4940024;29;20044;-72
2022/04/28 10:46:23;;;;;;;18.25;2.55;;;17.70;64.30;;;;;;4939696;29;20043;-73
2022/04/28 10:49:03;;;;;;;18.13;2.83;;;17.70;64.20;;;;;;4914104;29;20056;-72
2022/04/28 10:51:33;;;;;;;18.08;3.58;;;17.70;64.30;;;;;;4934617;29;20047;-75
2022/04/28 10:54:00;;;;;;;13.32;2.67;;;17.60;64.20;;;;;;4939684;29;20052;-72
2022/04/28 10:56:56;;;;;;;16.30;3.08;;;17.60;64.10;;;;;;4933636;29;20058;-72
2022/04/28 10:59:29;;;;;;;22.60;2.47;;;17.60;64.00;;;;;;4930339;29;20453;-72
2022/04/28 11:01:56;;;;;;;18.95;3.47;;;17.60;64.20;;;;;;4920667;29;20048;-73
2022/04/28 11:04:23;;;;;;;12.77;2.47;;;17.70;64.10;;;;;;4904207;29;20044;-73
2022/04/28 11:06:57;;;;;;;11.25;2.60;;;17.70;63.00;;;;;;4938475;29;20071;-73
2022/04/28 11:09:42;;;;;;;13.38;2.45;;;17.60;61.00;;;;;;4939110;29;20059;-73
2022/04/28 11:12:16;;;;;;;11.77;2.60;;;17.60;61.00;;;;;;4938950;29;20495;-73
2022/04/28 11:15:00;;;;;;;14.82;2.60;;;17.60;60.90;;;;;;4938847;29;20055;-70
2022/04/28 11:17:28;;;;;;;;;;;17.50;60.90;;;;;;4939947;29;20062;-74
2022/04/28 11:19:54;;;;;;;16.83;2.47;;;17.50;61.30;;;;;;4938290;29;20029;-73
2022/04/28 11:22:20;;;;;;;10.95;2.60;;;17.50;61.40;;;;;;4938564;29;20058;-73
2022/04/28 11:24:47;;;;;;;13.57;2.03;;;17.50;61.50;;;;;;4938063;29;20413;-75
2022/04/28 11:27:23;;;;;;;10.32;2.10;;;17.60;61.00;;;;;;4938036;29;20055;-73
2022/04/28 11:29:50;;;;;;;11.15;2.20;;;17.60;60.60;;;;;;4929815;29;20122;-74
2022/04/28 11:32:17;;;;;;;8.38;1.83;;;17.60;60.40;;;;;;4939671;29;20832;-72
2022/04/28 11:34:44;;;;;;;8.68;2.10;;;17.60;60.50;;;;;;4938040;29;20706;-73
2022/04/28 11:37:22;;;;;;;8.18;2.05;;;17.70;60.70;;;;;;4935988;29;20052;-72
2022/04/28 11:39:51;;;;;;;20.55;2.20;;;17.70;60.90;;;;;;4938312;29;20364;-72
2022/04/28 11:42:18;;;;;;;10.27;1.88;;;17.70;61.10;;;;;;4937636;29;20098;-72
2022/04/28 11:44:52;;;;;;;8.55;2.13;;;17.70;61.00;;;;;;4938756;29;20368;-72
2022/04/28 11:47:22;;;;;;;11.45;2.00;;;17.80;61.30;;;;;;4939323;29;20381;-74
2022/04/28 11:49:51;;;;;;;9.38;1.42;;;17.80;61.40;;;;;;4934292;29;20119;-74
2022/04/28 11:52:27;;;;;;;11.73;1.83;;;17.80;61.50;;;;;;4939397;29;20446;-74
2022/04/28 11:55:04;;;;;;;10.02;2.13;;;17.80;61.10;;;;;;4921536;29;20188;-75
2022/04/28 11:57:30;;;;;;;14.75;2.30;;;17.80;60.50;;;;;;4921775;29;20047;-74
2022/04/28 11:59:58;;;;;;;12.25;1.75;;;17.80;59.90;;;;;;4938628;29;20047;-73
2022/04/28 12:02:32;;;;;;;21.50;3.72;;;17.80;58.30;;;;;;4928416;29;20056;-75
2022/04/28 12:05:00;;;;;;;15.90;2.10;;;17.80;57.30;;;;;;4929047;29;20051;-73
2022/04/28 12:07:31;;;;;;;15.98;2.53;;;17.80;57.40;;;;;;4938389;29;20050;-74
2022/04/28 12:15:27;;;;;;;12.10;2.03;;;17.80;57.80;;;;;;4921839;29;20048;-74
2022/04/28 12:21:02;;;;;;;10.52;2.05;;;17.80;57.30;;;;;;4920575;29;20095;-76
2022/04/28 12:23:33;;;;;;;10.88;2.45;;;17.80;58.10;;;;;;4937961;29;20479;-73
2022/04/28 12:26:01;;;;;;;14.65;2.22;;;17.80;58.30;;;;;;4936306;29;20047;-75
2022/04/28 12:28:40;;;;;;;8.82;1.77;;;17.80;58.30;;;;;;4936375;29;20122;-73
2022/04/28 12:31:13;;;;;;;10.55;1.70;;;17.80;56.40;;;;;;4920065;29;20059;-73
2022/04/28 12:33:41;;;;;;;11.18;2.10;;;17.70;56.50;;;;;;4937558;29;20473;-74
2022/04/28 12:36:14;;;;;;;11.25;2.05;;;17.70;57.00;;;;;;4937607;29;20044;-75
2022/04/28 12:38:49;;;;;;;19.25;2.65;;;17.60;56.90;;;;;;4921007;29;20047;-75
2022/04/28 12:41:22;;;;;;;10.75;1.63;;;17.60;57.00;;;;;;4937802;29;20087;-74
2022/04/28 12:43:56;;;;;;;12.88;2.58;;;17.60;56.80;;;;;;4937112;29;20063;-73
2022/04/28 12:46:38;;;;;;;36.28;3.30;;;17.60;57.10;;;;;;4936552;29;20052;-75
2022/04/28 12:49:07;;;;;;;21.33;3.00;;;17.60;58.10;;;;;;4937868;29;20094;-73
2022/04/28 12:51:56;;;;;;;37.15;4.72;;;17.70;58.10;;;;;;4937912;29;20122;-74
2022/04/28 12:54:33;;;;;;;31.50;4.03;;;17.70;58.60;;;;;;4937829;29;20107;-74
2022/04/28 12:57:00;;;;;;;30.13;4.00;;;17.70;58.60;;;;;;4937882;29;20090;-73
2022/04/28 12:59:31;;;;;;;24.77;3.95;;;17.70;58.60;;;;;;4937028;29;20087;-74
2022/04/28 13:01:58;;;;;;;29.27;3.53;;;17.70;58.50;;;;;;4936810;29;20115;-75
2022/04/28 13:04:26;;;;;;;35.10;4.18;;;17.60;57.70;;;;;;4936752;29;20483;-74
2022/04/28 13:06:52;;;;;;;22.65;3.63;;;17.60;57.20;;;;;;4937160;29;20492;-73
2022/04/28 13:09:19;;;;;;;23.25;2.75;;;17.60;56.80;;;;;;4937641;29;20474;-74
2022/04/28 13:11:47;;;;;;;21.92;2.83;;;17.70;56.60;;;;;;4937765;29;20066;-75
2022/04/28 13:14:18;;;;;;;19.60;2.67;;;17.70;56.90;;;;;;4934854;29;20048;-73
2022/04/28 13:16:46;;;;;;;24.10;3.35;;;17.70;57.00;;;;;;4920830;29;20483;-75
2022/04/28 13:19:12;;;;;;;23.67;2.17;;;17.80;57.20;;;;;;4937308;29;20131;-74
2022/04/28 13:21:39;;;;;;;17.05;2.22;;;17.80;57.20;;;;;;4920459;29;20127;-74
2022/04/28 13:24:07;;;;;;;20.90;2.70;;;17.90;57.40;;;;;;4939038;29;20071;-75
2022/04/28 13:26:33;;;;;;;21.80;3.03;;;17.90;57.50;;;;;;4924482;29;20064;-75
2022/04/28 13:28:59;;;;;;;13.70;1.92;;;17.90;57.60;;;;;;4941978;29;20051;-74
2022/04/28 13:31:25;;;;;;;13.32;2.35;;;17.90;56.60;;;;;;4924513;29;20485;-71
2022/04/28 13:33:52;;;;;;;26.20;3.22;;;18.00;57.30;;;;;;4941630;29;20338;-76
2022/04/28 13:36:18;;;;;;;19.08;2.28;;;18.00;56.70;;;;;;4941385;29;20052;-74
2022/04/28 13:38:45;;;;;;;21.67;2.72;;;18.00;57.60;;;;;;4924632;29;20051;-76
2022/04/28 13:41:12;;;;;;;15.15;2.15;;;18.00;57.70;;;;;;4941412;29;20111;-73
2022/04/28 13:43:38;;;;;;;12.23;1.70;;;18.00;57.80;;;;;;4941155;29;20044;-75
2022/04/28 13:46:06;;;;;;;18.15;2.38;;;18.00;57.70;;;;;;4921496;29;20126;-73
2022/04/28 13:48:33;;;;;;;21.77;2.63;;;18.00;57.60;;;;;;4924141;29;20051;-75
2022/04/28 13:51:00;;;;;;;11.82;2.00;;;18.00;57.70;;;;;;4940800;29;20533;-73
2022/04/28 13:53:28;;;;;;;14.25;1.98;;;18.00;57.60;;;;;;4940926;29;20052;-74